ASTR208 YAMB-YAMB
Flight info
| Callsign | ASTR208 |
|---|---|
| Flight time | 0h 34m |
| Altitude | 2500 |
| Route | YAMB YAMB |
| Aircraft | DA40/L-V/N |
Departure
| Time | 2026-04-16 05:23 |
|---|---|
| Airport | RAAF Base Amberley (YAMB) |
Arrival
| Time | 2026-04-16 05:57 |
|---|---|
| Airport | RAAF Base Amberley (YAMB) |
| Time | Latitude | Longitude | Altitude | Speed | Heading |
|---|---|---|---|---|---|
| 2026-04-16 05:12 | -27.64183 | 152.72070 | 89 ft | 0 kts | 12° |
| 2026-04-16 05:15 | -27.64171 | 152.72070 | 90 ft | 1 kts | 336° |
| 2026-04-16 05:15 | -27.64165 | 152.72064 | 90 ft | 5 kts | 302° |
| 2026-04-16 05:15 | -27.64157 | 152.72027 | 90 ft | 0 kts | 281° |
| 2026-04-16 05:15 | -27.64162 | 152.72005 | 90 ft | 5 kts | 210° |
| 2026-04-16 05:16 | -27.64277 | 152.71980 | 92 ft | 26 kts | 192° |
| 2026-04-16 05:16 | -27.64450 | 152.71940 | 96 ft | 25 kts | 191° |
| 2026-04-16 05:16 | -27.64616 | 152.71889 | 97 ft | 23 kts | 208° |
| 2026-04-16 05:16 | -27.64680 | 152.71778 | 99 ft | 7 kts | 248° |
| 2026-04-16 05:17 | -27.64681 | 152.71775 | 99 ft | 0 kts | 247° |
| 2026-04-16 05:22 | -27.64706 | 152.71708 | 98 ft | 25 kts | 249° |
| 2026-04-16 05:22 | -27.64644 | 152.71612 | 96 ft | 34 kts | 344° |
| 2026-04-16 05:22 | -27.64261 | 152.71451 | 107 ft | 77 kts | 338° |
| 2026-04-16 05:22 | -27.63689 | 152.71179 | 206 ft | 95 kts | 343° |
| 2026-04-16 05:23 | -27.63069 | 152.70913 | 416 ft | 95 kts | 343° |
| 2026-04-16 05:23 | -27.62448 | 152.70626 | 576 ft | 98 kts | 342° |
| 2026-04-16 05:23 | -27.61798 | 152.70379 | 774 ft | 101 kts | 346° |
| 2026-04-16 05:23 | -27.61207 | 152.69967 | 971 ft | 105 kts | 305° |
| 2026-04-16 05:24 | -27.61197 | 152.69113 | 1141 ft | 116 kts | 260° |
| 2026-04-16 05:24 | -27.61490 | 152.68197 | 1214 ft | 128 kts | 239° |
| 2026-04-16 05:24 | -27.62310 | 152.67991 | 1256 ft | 130 kts | 161° |
| 2026-04-16 05:24 | -27.63142 | 152.68326 | 1209 ft | 124 kts | 158° |
| 2026-04-16 05:25 | -27.63800 | 152.67963 | 1236 ft | 121 kts | 265° |
| 2026-04-16 05:25 | -27.63320 | 152.67409 | 1260 ft | 124 kts | 9° |
| 2026-04-16 05:25 | -27.62898 | 152.68223 | 1158 ft | 143 kts | 95° |
| 2026-04-16 05:25 | -27.63547 | 152.69026 | 1080 ft | 136 kts | 152° |
| 2026-04-16 05:26 | -27.64389 | 152.69358 | 1121 ft | 122 kts | 158° |
| 2026-04-16 05:26 | -27.65185 | 152.69629 | 1140 ft | 119 kts | 162° |
| 2026-04-16 05:26 | -27.65985 | 152.69849 | 1052 ft | 125 kts | 165° |
| 2026-04-16 05:26 | -27.66826 | 152.70141 | 974 ft | 123 kts | 137° |
| 2026-04-16 05:27 | -27.66925 | 152.70984 | 885 ft | 110 kts | 68° |
| 2026-04-16 05:27 | -27.66648 | 152.71767 | 853 ft | 106 kts | 54° |
| 2026-04-16 05:27 | -27.66078 | 152.72120 | 734 ft | 88 kts | 357° |
| 2026-04-16 05:27 | -27.65513 | 152.71988 | 514 ft | 85 kts | 336° |
| 2026-04-16 05:28 | -27.64965 | 152.71743 | 300 ft | 89 kts | 342° |
| 2026-04-16 05:28 | -27.64380 | 152.71486 | 113 ft | 89 kts | 342° |
| 2026-04-16 05:28 | -27.63744 | 152.71210 | 217 ft | 104 kts | 343° |
| 2026-04-16 05:28 | -27.63050 | 152.70902 | 381 ft | 109 kts | 341° |
| 2026-04-16 05:29 | -27.62325 | 152.70586 | 528 ft | 108 kts | 343° |
| 2026-04-16 05:29 | -27.61670 | 152.70293 | 842 ft | 97 kts | 339° |
| 2026-04-16 05:29 | -27.61002 | 152.70013 | 895 ft | 111 kts | 341° |
| 2026-04-16 05:29 | -27.60671 | 152.69315 | 1072 ft | 120 kts | 258° |
| 2026-04-16 05:30 | -27.61181 | 152.68547 | 1134 ft | 134 kts | 202° |
| 2026-04-16 05:30 | -27.62136 | 152.68485 | 1060 ft | 136 kts | 174° |
| 2026-04-16 05:30 | -27.63055 | 152.68725 | 1065 ft | 139 kts | 160° |
| 2026-04-16 05:30 | -27.63978 | 152.69078 | 1107 ft | 138 kts | 156° |
| 2026-04-16 05:31 | -27.64862 | 152.69471 | 1227 ft | 139 kts | 156° |
| 2026-04-16 05:31 | -27.65753 | 152.69860 | 1188 ft | 133 kts | 158° |
| 2026-04-16 05:31 | -27.66531 | 152.70245 | 1182 ft | 113 kts | 139° |
| 2026-04-16 05:31 | -27.66774 | 152.71003 | 1126 ft | 103 kts | 72° |
| 2026-04-16 05:32 | -27.66478 | 152.71720 | 837 ft | 101 kts | 53° |
| 2026-04-16 05:32 | -27.65910 | 152.72076 | 549 ft | 98 kts | 355° |
| 2026-04-16 05:32 | -27.65247 | 152.71855 | 323 ft | 97 kts | 347° |
| 2026-04-16 05:32 | -27.64651 | 152.71614 | 217 ft | 88 kts | 345° |
| 2026-04-16 05:33 | -27.64063 | 152.71350 | 251 ft | 98 kts | 341° |
| 2026-04-16 05:33 | -27.63381 | 152.71053 | 355 ft | 109 kts | 342° |
| 2026-04-16 05:33 | -27.62643 | 152.70733 | 444 ft | 115 kts | 342° |
| 2026-04-16 05:33 | -27.61944 | 152.70416 | 713 ft | 105 kts | 342° |
| 2026-04-16 05:34 | -27.61261 | 152.70148 | 875 ft | 108 kts | 345° |
| 2026-04-16 05:34 | -27.60949 | 152.69421 | 950 ft | 126 kts | 256° |
| 2026-04-16 05:34 | -27.61454 | 152.68594 | 1010 ft | 136 kts | 211° |
| 2026-04-16 05:34 | -27.62369 | 152.68498 | 1058 ft | 141 kts | 166° |
| 2026-04-16 05:35 | -27.63324 | 152.68745 | 1156 ft | 139 kts | 165° |
| 2026-04-16 05:35 | -27.64202 | 152.69030 | 1278 ft | 130 kts | 159° |
| 2026-04-16 05:35 | -27.65072 | 152.69289 | 1301 ft | 132 kts | 165° |
| 2026-04-16 05:35 | -27.65972 | 152.69504 | 1398 ft | 127 kts | 168° |
| 2026-04-16 05:36 | -27.66857 | 152.69713 | 1431 ft | 131 kts | 165° |
| 2026-04-16 05:36 | -27.67720 | 152.69957 | 1545 ft | 129 kts | 163° |
| 2026-04-16 05:36 | -27.68585 | 152.70273 | 1585 ft | 128 kts | 158° |
| 2026-04-16 05:36 | -27.69429 | 152.70614 | 1483 ft | 129 kts | 160° |
| 2026-04-16 05:37 | -27.70088 | 152.71209 | 1352 ft | 121 kts | 96° |
| 2026-04-16 05:37 | -27.69865 | 152.72086 | 1280 ft | 119 kts | 64° |
| 2026-04-16 05:37 | -27.69508 | 152.72921 | 1137 ft | 121 kts | 34° |
| 2026-04-16 05:37 | -27.68757 | 152.73235 | 1152 ft | 103 kts | 4° |
| 2026-04-16 05:38 | -27.68102 | 152.73110 | 1035 ft | 93 kts | 341° |
| 2026-04-16 05:38 | -27.67519 | 152.72849 | 887 ft | 91 kts | 343° |
| 2026-04-16 05:38 | -27.66931 | 152.72602 | 736 ft | 93 kts | 342° |
| 2026-04-16 05:38 | -27.66336 | 152.72345 | 641 ft | 94 kts | 342° |
| 2026-04-16 05:39 | -27.65694 | 152.72073 | 547 ft | 103 kts | 344° |
| 2026-04-16 05:39 | -27.65092 | 152.71812 | 385 ft | 93 kts | 338° |
| 2026-04-16 05:39 | -27.64487 | 152.71539 | 120 ft | 92 kts | 344° |
| 2026-04-16 05:39 | -27.63878 | 152.71266 | 263 ft | 96 kts | 341° |
| 2026-04-16 05:40 | -27.63235 | 152.70983 | 358 ft | 108 kts | 342° |
| 2026-04-16 05:40 | -27.62575 | 152.70688 | 621 ft | 101 kts | 341° |
| 2026-04-16 05:40 | -27.61893 | 152.70384 | 742 ft | 107 kts | 344° |
| 2026-04-16 05:40 | -27.61221 | 152.70116 | 1012 ft | 101 kts | 343° |
| 2026-04-16 05:41 | -27.60511 | 152.69870 | 1109 ft | 112 kts | 347° |
| 2026-04-16 05:41 | -27.59719 | 152.69949 | 1200 ft | 119 kts | 19° |
| 2026-04-16 05:41 | -27.59001 | 152.70337 | 1388 ft | 115 kts | 22° |
| 2026-04-16 05:41 | -27.58262 | 152.70721 | 1428 ft | 119 kts | 27° |
| 2026-04-16 05:42 | -27.57524 | 152.71187 | 1441 ft | 125 kts | 28° |
| 2026-04-16 05:42 | -27.56757 | 152.71668 | 1434 ft | 126 kts | 27° |
| 2026-04-16 05:42 | -27.56005 | 152.72144 | 1432 ft | 123 kts | 27° |
| 2026-04-16 05:42 | -27.55253 | 152.72611 | 1430 ft | 122 kts | 27° |
| 2026-04-16 05:43 | -27.54516 | 152.73078 | 1405 ft | 119 kts | 29° |
| 2026-04-16 05:43 | -27.53813 | 152.73537 | 1424 ft | 115 kts | 27° |
| 2026-04-16 05:43 | -27.53097 | 152.73940 | 1418 ft | 117 kts | 24° |
| 2026-04-16 05:43 | -27.52369 | 152.74368 | 1424 ft | 119 kts | 28° |
| 2026-04-16 05:44 | -27.51618 | 152.74806 | 1427 ft | 122 kts | 27° |
| 2026-04-16 05:44 | -27.50859 | 152.75260 | 1436 ft | 124 kts | 26° |
| 2026-04-16 05:44 | -27.50100 | 152.75713 | 1428 ft | 124 kts | 26° |
| 2026-04-16 05:44 | -27.49313 | 152.76174 | 1431 ft | 125 kts | 27° |
| 2026-04-16 05:45 | -27.48470 | 152.76242 | 1416 ft | 128 kts | 339° |
| 2026-04-16 05:45 | -27.47950 | 152.75448 | 1413 ft | 137 kts | 285° |
| 2026-04-16 05:45 | -27.47850 | 152.74379 | 1431 ft | 136 kts | 282° |
| 2026-04-16 05:45 | -27.47754 | 152.73317 | 1417 ft | 136 kts | 279° |
| 2026-04-16 05:46 | -27.48048 | 152.72325 | 1414 ft | 141 kts | 228° |
| 2026-04-16 05:46 | -27.48940 | 152.71904 | 1414 ft | 140 kts | 194° |
| 2026-04-16 05:46 | -27.49864 | 152.71572 | 1434 ft | 139 kts | 200° |
| 2026-04-16 05:46 | -27.50780 | 152.71220 | 1435 ft | 140 kts | 198° |
| 2026-04-16 05:47 | -27.51703 | 152.70861 | 1428 ft | 140 kts | 200° |
| 2026-04-16 05:47 | -27.52620 | 152.70511 | 1424 ft | 138 kts | 199° |
| 2026-04-16 05:47 | -27.53529 | 152.70172 | 1429 ft | 134 kts | 199° |
| 2026-04-16 05:47 | -27.54429 | 152.69848 | 1421 ft | 136 kts | 198° |
| 2026-04-16 05:48 | -27.55318 | 152.69509 | 1423 ft | 135 kts | 198° |
| 2026-04-16 05:48 | -27.56210 | 152.69179 | 1426 ft | 135 kts | 198° |
| 2026-04-16 05:48 | -27.57121 | 152.68844 | 1425 ft | 140 kts | 199° |
| 2026-04-16 05:48 | -27.58045 | 152.68500 | 1428 ft | 140 kts | 201° |
| 2026-04-16 05:49 | -27.58965 | 152.68167 | 1432 ft | 138 kts | 200° |
| 2026-04-16 05:49 | -27.59909 | 152.67947 | 1417 ft | 140 kts | 173° |
| 2026-04-16 05:49 | -27.60528 | 152.68140 | 1417 ft | 139 kts | 159° |
| 2026-04-16 05:49 | -27.61444 | 152.68448 | 1450 ft | 136 kts | 166° |
| 2026-04-16 05:50 | -27.62696 | 152.68758 | 1399 ft | 138 kts | 166° |
| 2026-04-16 05:50 | -27.63305 | 152.68940 | 1336 ft | 138 kts | 160° |
| 2026-04-16 05:50 | -27.64260 | 152.69257 | 1207 ft | 144 kts | 160° |
| 2026-04-16 05:50 | -27.65167 | 152.69577 | 1199 ft | 131 kts | 161° |
| 2026-04-16 05:51 | -27.65977 | 152.69872 | 1132 ft | 111 kts | 158° |
| 2026-04-16 05:51 | -27.66459 | 152.70419 | 1020 ft | 93 kts | 98° |
| 2026-04-16 05:51 | -27.66373 | 152.71096 | 813 ft | 84 kts | 69° |
| 2026-04-16 05:51 | -27.66121 | 152.71654 | 654 ft | 80 kts | 46° |
| 2026-04-16 05:52 | -27.65634 | 152.71905 | 468 ft | 82 kts | 10° |
| 2026-04-16 05:52 | -27.65077 | 152.71788 | 227 ft | 85 kts | 345° |
| 2026-04-16 05:52 | -27.64549 | 152.71556 | 123 ft | 76 kts | 347° |
| 2026-04-16 05:52 | -27.64034 | 152.71329 | 199 ft | 86 kts | 347° |
| 2026-04-16 05:53 | -27.63423 | 152.71060 | 339 ft | 98 kts | 345° |
| 2026-04-16 05:53 | -27.62795 | 152.70776 | 519 ft | 98 kts | 344° |
| 2026-04-16 05:53 | -27.62145 | 152.70476 | 721 ft | 102 kts | 344° |
| 2026-04-16 05:53 | -27.61492 | 152.70176 | 868 ft | 105 kts | 342° |
| 2026-04-16 05:54 | -27.60745 | 152.69939 | 946 ft | 112 kts | 8° |
| 2026-04-16 05:54 | -27.60253 | 152.70619 | 993 ft | 127 kts | 68° |
| 2026-04-16 05:54 | -27.60128 | 152.71584 | 1162 ft | 130 kts | 117° |
| 2026-04-16 05:54 | -27.60949 | 152.72096 | 1220 ft | 146 kts | 156° |
| 2026-04-16 05:55 | -27.61910 | 152.72554 | 1158 ft | 152 kts | 153° |
| 2026-04-16 05:55 | -27.62850 | 152.73010 | 1295 ft | 144 kts | 155° |
| 2026-04-16 05:55 | -27.63796 | 152.73385 | 1210 ft | 146 kts | 159° |
| 2026-04-16 05:55 | -27.64774 | 152.73743 | 1153 ft | 145 kts | 161° |
| 2026-04-16 05:56 | -27.65747 | 152.73892 | 997 ft | 146 kts | 200° |
| 2026-04-16 05:56 | -27.66351 | 152.73116 | 873 ft | 134 kts | 256° |
| 2026-04-16 05:56 | -27.66164 | 152.72290 | 665 ft | 103 kts | 323° |
| 2026-04-16 05:56 | -27.65541 | 152.71964 | 438 ft | 92 kts | 349° |
| 2026-04-16 05:57 | -27.64937 | 152.71734 | 222 ft | 92 kts | 342° |
| 2026-04-16 05:57 | -27.64401 | 152.71490 | 106 ft | 78 kts | 348° |
| 2026-04-16 05:57 | -27.63959 | 152.71321 | 97 ft | 54 kts | 343° |
| 2026-04-16 05:57 | -27.63661 | 152.71196 | 95 ft | 40 kts | 337° |
| 2026-04-16 05:58 | -27.63428 | 152.71101 | 91 ft | 21 kts | 358° |
| 2026-04-16 05:58 | -27.63425 | 152.71156 | 91 ft | 10 kts | 96° |
| 2026-04-16 05:58 | -27.63457 | 152.71340 | 91 ft | 36 kts | 101° |
| 2026-04-16 05:58 | -27.63512 | 152.71640 | 89 ft | 37 kts | 102° |
| 2026-04-16 05:59 | -27.63567 | 152.71900 | 89 ft | 30 kts | 102° |
| 2026-04-16 05:59 | -27.63687 | 152.72060 | 84 ft | 27 kts | 147° |
| 2026-04-16 05:59 | -27.63853 | 152.72081 | 83 ft | 31 kts | 199° |
| 2026-04-16 05:59 | -27.64111 | 152.72020 | 89 ft | 25 kts | 193° |
| 2026-04-16 06:00 | -27.64163 | 152.72046 | 91 ft | 7 kts | 124° |
| 2026-04-16 06:00 | -27.64194 | 152.72048 | 89 ft | 1 kts | 180° |
| 2026-04-16 06:00 | -27.64200 | 152.72063 | 89 ft | 3 kts | 77° |
| 2026-04-16 06:00 | -27.64183 | 152.72070 | 91 ft | 0 kts | 9° |